Wind From: 11-12-2017 12:03 Until: 12-12-2017 06:00 warning for: Wind Level: Orange info button

Power and phone distribution networks may be disrupted for relatively long periods., Roofs and chimneys can be damaged. , Tree branches may break. , Vehicles can be deported. , Traffic may be disrupted, particularly on secondary roads in forest areas. Limit your trips. , Limit your speed in highway driving, especially if you drive a vehicle or hitch sensitive to wind. , Do not go for walks in forests or along the coast., In town, be vigilant against possible falling objects., Do not work on roofs and do not touch any electrical line fallen on the ground., Store or secure sensitive objects to wind or likely to be damaged., Always install power generators outside buildings. 


Meteo18 Weather Cam more information Meteo18 Weather Cam


Thunder radar more information blitzortung!


Rain radar more information rain snow radar


Visit our other weather sites:

Template documentation
and downloads

And another site



Weather Underground History page Text

Daily Summary for February 20, 2017 Units:  English    Metric   Both
« Previous Day
Next Day »
Daily Weekly Monthly Yearly Custom
  High: Low: Average:
Temperature: 47.8 °F 31.8 °F 41.9 °F
Dew Point: 46.9 °F 30.6 °F 40.3 °F
Humidity: 97 % 87 % 94 %
Wind Speed: 11 mph 0 mph 3.3 mph
Wind Gust: 18 mph - -
Wind:- - SW
Pressure: 30.3 in 30.3 in -
Precipitation: 0.01 in    
Historical Graphs
 
 
Tabular Data for February 20, 2017
Time Temperature Dew Point Pressure Wind Wind Speed Wind Gust Humidity Rainfall Rate (Hourly)
00:02 37.9 °F 34.3 °F 30.3 in Calm   1 mph 87 % 0 in
00:07 37.9 °F 34.3 °F 30.3 in Calm     87 % 0 in
00:12 37.6 °F 34 °F 30.3 in Calm     87 % 0 in
00:17 37 °F 33.6 °F 30.3 in Calm     87 % 0 in
00:22 37 °F 34.2 °F 30.3 in Calm     89 % 0 in
00:32 36.9 °F 33.6 °F 30.3 in Calm     88 % 0 in
00:42 36.1 °F 33.3 °F 30.3 in Calm     89 % 0 in
00:47 36.1 °F 33.4 °F 30.3 in Calm     90 % 0 in
00:52 36.1 °F 33.4 °F 30.3 in Calm     90 % 0 in
00:57 36.3 °F 34 °F 30.3 in Calm     91 % 0 in
01:02 36.3 °F 33.6 °F 30.3 in Calm     90 % 0 in
01:12 36 °F 33.3 °F 30.3 in Calm     90 % 0 in
01:17 36 °F 33.6 °F 30.3 in Calm     91 % 0 in
01:22 36.1 °F 33.8 °F 30.3 in Calm     91 % 0 in
01:27 36 °F 33.6 °F 30.3 in Calm     91 % 0 in
01:32 36.1 °F 33.8 °F 30.3 in Calm     91 % 0 in
01:37 36.5 °F 34.2 °F 30.3 in Calm     91 % 0 in
01:42 36.1 °F 33.4 °F 30.3 in Calm   1 mph 90 % 0 in
01:47 36 °F 33.6 °F 30.3 in Calm   1 mph 91 % 0 in
01:57 35.4 °F 32.7 °F 30.3 in Calm   1 mph 90 % 0 in
02:02 35.2 °F 32.9 °F 30.3 in Calm   1 mph 91 % 0 in
02:07 34.9 °F 32.5 °F 30.3 in Calm   1 mph 91 % 0 in
02:12 34.5 °F 32.4 °F 30.3 in Calm   1 mph 92 % 0 in
02:17 34.3 °F 32.2 °F 30.3 in Calm   1 mph 92 % 0 in
02:22 34.3 °F 32.2 °F 30.3 in Calm   1 mph 92 % 0 in
02:27 34.3 °F 32.2 °F 30.3 in SSE 1 mph   92 % 0 in
02:32 34.2 °F 32 °F 30.3 in Calm   1 mph 92 % 0 in
02:37 34 °F 31.8 °F 30.3 in South 1 mph 1 mph 92 % 0 in
02:42 34 °F 32.2 °F 30.3 in Calm   2 mph 93 % 0 in
02:47 34 °F 32.2 °F 30.3 in Calm   2 mph 93 % 0 in
02:52 33.6 °F 31.8 °F 30.3 in Calm   2 mph 93 % 0 in
02:57 33.6 °F 31.8 °F 30.3 in SSW 1 mph 2 mph 93 % 0 in
03:02 33.6 °F 31.8 °F 30.3 in Calm   2 mph 93 % 0 in
03:07 33.4 °F 31.6 °F 30.3 in Calm   2 mph 93 % 0 in
03:12 33.4 °F 31.6 °F 30.3 in Calm   2 mph 93 % 0 in
03:17 33.4 °F 31.6 °F 30.3 in SSW 1 mph 2 mph 93 % 0 in
03:22 33.4 °F 31.8 °F 30.3 in Calm   1 mph 94 % 0 in
03:27 33.4 °F 31.8 °F 30.3 in Calm   1 mph 94 % 0 in
03:32 33.6 °F 32 °F 30.3 in Calm   1 mph 94 % 0 in
03:37 33.6 °F 32 °F 30.3 in Calm   1 mph 94 % 0 in
03:42 33.4 °F 31.8 °F 30.3 in Calm   1 mph 94 % 0 in
03:47 33.3 °F 31.6 °F 30.3 in Calm     94 % 0 in
03:52 33.3 °F 31.6 °F 30.3 in Calm     94 % 0 in
03:57 33.1 °F 31.5 °F 30.3 in Calm     94 % 0 in
04:02 32.9 °F 31.3 °F 30.3 in Calm     94 % 0 in
04:07 32.9 °F 31.3 °F 30.3 in Calm     94 % 0 in
04:12 32.7 °F 31.1 °F 30.3 in Calm     94 % 0 in
04:17 32.5 °F 30.9 °F 30.3 in Calm     94 % 0 in
04:22 32.7 °F 31.5 °F 30.3 in Calm     95 % 0 in
04:32 32.7 °F 31.5 °F 30.3 in Calm     95 % 0 in
04:37 32.7 °F 31.5 °F 30.3 in Calm     95 % 0 in
04:42 32.7 °F 31.5 °F 30.3 in Calm     95 % 0 in
04:52 32.5 °F 31.3 °F 30.3 in Calm     95 % 0 in
04:57 32.4 °F 31.1 °F 30.3 in Calm     95 % 0 in
05:02 32.2 °F 30.9 °F 30.3 in Calm     95 % 0 in
05:12 31.8 °F 30.6 °F 30.3 in Calm     95 % 0 in
05:17 31.8 °F 30.6 °F 30.3 in Calm     95 % 0 in
05:22 32 °F 30.7 °F 30.3 in Calm     95 % 0 in
05:32 32.2 °F 30.9 °F 30.3 in Calm     95 % 0 in
05:42 32.5 °F 31.3 °F 30.3 in Calm     95 % 0 in
05:47 32.5 °F 31.3 °F 30.3 in Calm     95 % 0 in
05:52 32.7 °F 31.5 °F 30.3 in Calm     95 % 0 in
05:57 32.9 °F 31.6 °F 30.3 in Calm     95 % 0 in
06:02 33.1 °F 31.8 °F 30.3 in Calm     95 % 0 in
06:12 33.3 °F 32 °F 30.3 in Calm     95 % 0 in
06:17 33.3 °F 32 °F 30.3 in Calm     95 % 0 in
06:22 33.3 °F 32 °F 30.3 in Calm     95 % 0 in
06:32 33.4 °F 32.2 °F 30.3 in Calm     95 % 0 in
06:37 33.6 °F 32.4 °F 30.3 in Calm     95 % 0 in
06:42 33.6 °F 32.4 °F 30.3 in Calm     95 % 0 in
06:47 33.8 °F 32.5 °F 30.3 in Calm     95 % 0 in
06:52 34 °F 32.7 °F 30.3 in Calm     95 % 0 in
07:02 34.3 °F 33.1 °F 30.3 in Calm     95 % 0 in
07:12 34.5 °F 33.3 °F 30.3 in Calm     95 % 0 in
07:17 34.5 °F 33.3 °F 30.3 in Calm     95 % 0 in
07:22 34.7 °F 33.4 °F 30.3 in SE 1 mph   95 % 0 in
07:32 34.7 °F 33.4 °F 30.3 in Calm     95 % 0 in
07:42 34.5 °F 33.3 °F 30.3 in Calm   2 mph 95 % 0 in
07:47 34.5 °F 33.3 °F 30.3 in Calm   1 mph 95 % 0 in
07:52 34.5 °F 33.3 °F 30.3 in SSE 1 mph 1 mph 95 % 0 in
07:57 34.7 °F 33.4 °F 30.3 in Calm   2 mph 95 % 0 in
08:02 34.9 °F 33.6 °F 30.3 in Calm   2 mph 95 % 0 in
08:12 34.9 °F 33.6 °F 30.3 in Calm   2 mph 95 % 0 in
08:17 34.9 °F 33.6 °F 30.3 in Calm   2 mph 95 % 0 in
08:22 34.9 °F 33.6 °F 30.3 in SSE 1 mph 2 mph 95 % 0 in
08:32 35.1 °F 33.8 °F 30.3 in South 1 mph 2 mph 95 % 0 in
08:37 35.2 °F 34 °F 30.3 in South 2 mph 3 mph 95 % 0 in
08:42 35.8 °F 34.5 °F 30.3 in SSE 1 mph 3 mph 95 % 0 in
08:52 36.5 °F 34.9 °F 30.3 in SSE 1 mph 3 mph 94 % 0 in
08:57 36.9 °F 35.1 °F 30.3 in SW 2 mph 3 mph 93 % 0 in
09:02 37.2 °F 35.1 °F 30.3 in South 2 mph 3 mph 92 % 0 in
09:12 38.3 °F 36 °F 30.3 in SSW 2 mph 3 mph 91 % 0 in
09:22 39.4 °F 36.7 °F 30.3 in South 2 mph 4 mph 90 % 0 in
09:32 39.9 °F 36.9 °F 30.3 in South 1 mph 4 mph 89 % 0 in
09:42 40.5 °F 37.2 °F 30.3 in SW 7 mph 7 mph 88 % 0 in
09:47 40.6 °F 37 °F 30.3 in SSW 4 mph 7 mph 87 % 0 in
09:52 41 °F 37.8 °F 30.3 in SSW 4 mph 7 mph 88 % 0 in
09:57 41.5 °F 38.5 °F 30.3 in SW 4 mph 8 mph 89 % 0 in
10:02 41.7 °F 38.5 °F 30.3 in SSW 3 mph 8 mph 88 % 0 in
10:12 41.2 °F 37.9 °F 30.3 in SW 5 mph 8 mph 88 % 0 in
10:17 41.4 °F 38.1 °F 30.3 in SW 3 mph 10 mph 88 % 0 in
10:22 41.4 °F 38.3 °F 30.3 in WNW 3 mph 10 mph 89 % 0 in
10:32 41.2 °F 38.5 °F 30.3 in SW 3 mph 11 mph 90 % 0 in
10:42 41.2 °F 38.5 °F 30.3 in SW 3 mph 11 mph 90 % 0 in
10:47 41.2 °F 38.5 °F 30.3 in Calm   8 mph 90 % 0 in
10:52 41.2 °F 38.5 °F 30.3 in SW 4 mph 11 mph 90 % 0 in
10:57 41.2 °F 38.5 °F 30.3 in WSW 3 mph 11 mph 90 % 0 in
11:02 41.4 °F 38.7 °F 30.3 in SW 9 mph 11 mph 90 % 0 in
11:07 41.2 °F 38.8 °F 30.3 in SSW 4 mph 11 mph 91 % 0 in
11:12 41.2 °F 38.8 °F 30.3 in SW 8 mph 11 mph 91 % 0 in
11:17 40.8 °F 38.5 °F 30.3 in SW 6 mph 11 mph 91 % 0 in
11:22 41.4 °F 39 °F 30.3 in SSW 3 mph 11 mph 91 % 0 in
11:32 41.9 °F 39.4 °F 30.3 in South 3 mph 10 mph 91 % 0 in
11:37 42.1 °F 39.4 °F 30.3 in SW 7 mph 11 mph 90 % 0 in
11:42 42.4 °F 39.9 °F 30.3 in SW 8 mph 11 mph 91 % 0 in
11:47 42.6 °F 39.9 °F 30.3 in SW 7 mph 11 mph 90 % 0 in
11:52 42.4 °F 39.7 °F 30.3 in SSW 3 mph 11 mph 90 % 0 in
11:57 42.6 °F 39.9 °F 30.3 in SSW 2 mph 11 mph 90 % 0 in
12:02 42.6 °F 39.9 °F 30.3 in SSW 4 mph 11 mph 90 % 0 in
12:07 42.6 °F 39.9 °F 30.3 in SSW 5 mph 11 mph 90 % 0 in
12:12 43 °F 40.3 °F 30.3 in SW 6 mph 10 mph 90 % 0 in
12:17 43.2 °F 40.1 °F 30.3 in SSW 6 mph 10 mph 89 % 0 in
12:22 43.5 °F 40.5 °F 30.3 in SW 6 mph 10 mph 89 % 0 in
12:27 43.9 °F 40.8 °F 30.3 in SW 7 mph 10 mph 89 % 0 in
12:32 43.9 °F 40.8 °F 30.3 in SW 6 mph 10 mph 89 % 0 in
12:42 44.4 °F 41.9 °F 30.3 in SW 6 mph 11 mph 91 % 0 in
12:47 44.8 °F 42.1 °F 30.3 in SW 5 mph 9 mph 90 % 0 in
12:52 45 °F 42.4 °F 30.3 in SSW 3 mph 9 mph 91 % 0 in
12:57 45.3 °F 42.6 °F 30.3 in WSW 6 mph 10 mph 90 % 0 in
13:02 45.5 °F 42.8 °F 30.3 in WSW 4 mph 10 mph 90 % 0 in
13:07 45.7 °F 42.6 °F 30.3 in SSW 7 mph 11 mph 89 % 0 in
13:12 45.7 °F 43 °F 30.3 in WSW 7 mph 11 mph 90 % 0 in
13:17 45.9 °F 43.2 °F 30.3 in SW 10 mph 11 mph 90 % 0 in
13:22 46 °F 43.5 °F 30.3 in SW 7 mph 10 mph 91 % 0 in
13:32 46.2 °F 43.5 °F 30.3 in SW 8 mph 10 mph 90 % 0 in
13:42 46.2 °F 43.7 °F 30.3 in SW 6 mph 12 mph 91 % 0 in
13:47 46.4 °F 43.9 °F 30.3 in SW 8 mph 12 mph 91 % 0 in
13:52 46.2 °F 44.1 °F 30.3 in SW 7 mph 12 mph 92 % 0 in
13:57 46.4 °F 44.4 °F 30.3 in SW 7 mph 12 mph 93 % 0 in
14:02 46.2 °F 44.2 °F 30.3 in SSW 6 mph 12 mph 93 % 0 in
14:07 46.4 °F 44.8 °F 30.3 in SSW 6 mph 12 mph 94 % 0 in
14:12 46.6 °F 45 °F 30.3 in SW 9 mph 12 mph 94 % 0 in
14:17 46.6 °F 45 °F 30.3 in SW 10 mph 11 mph 94 % 0 in
14:22 46.6 °F 45 °F 30.3 in SW 9 mph 12 mph 94 % 0 in
14:27 46.8 °F 45.1 °F 30.3 in SW 8 mph 12 mph 94 % 0 in
14:32 46.8 °F 44.8 °F 30.3 in SW 4 mph 12 mph 93 % 0 in
14:37 46.8 °F 44.8 °F 30.3 in SW 11 mph 11 mph 93 % 0 in
14:42 46.9 °F 45 °F 30.3 in SW 9 mph 11 mph 93 % 0 in
14:47 46.9 °F 45 °F 30.3 in SSW 3 mph 12 mph 93 % 0 in
14:57 47.1 °F 45.5 °F 30.3 in SSW 7 mph 12 mph 94 % 0 in
15:02 47.3 °F 45.7 °F 30.3 in SSW 6 mph 12 mph 94 % 0 in
15:12 47.5 °F 45.9 °F 30.3 in West 6 mph 10 mph 94 % 0 in
15:17 47.3 °F 45.9 °F 30.3 in SW 8 mph 11 mph 95 % 0 in
15:22 47.3 °F 45.9 °F 30.3 in SW 7 mph 11 mph 95 % 0 in
15:27 47.3 °F 45.9 °F 30.3 in SSW 3 mph 10 mph 95 % 0 in
15:32 47.3 °F 45.9 °F 30.3 in SSW 7 mph 10 mph 95 % 0 in
15:37 47.3 °F 45.9 °F 30.3 in South 4 mph 8 mph 95 % 0 in
15:42 47.3 °F 46.2 °F 30.3 in SW 5 mph 12 mph 96 % 0 in
15:47 47.3 °F 46.2 °F 30.3 in SW 5 mph 12 mph 96 % 0 in
15:52 47.3 °F 46.2 °F 30.3 in SW 4 mph 12 mph 96 % 0 in
15:57 47.5 °F 46.4 °F 30.3 in SW 6 mph 10 mph 96 % 0 in
16:07 47.5 °F 46.4 °F 30.3 in SW 5 mph 12 mph 96 % 0 in
16:12 47.5 °F 46.4 °F 30.3 in WSW 8 mph 12 mph 96 % 0 in
16:17 47.5 °F 46.4 °F 30.3 in SSW 7 mph 12 mph 96 % 0 in
16:22 47.5 °F 46.4 °F 30.3 in SW 11 mph 18 mph 96 % 0 in
16:27 47.5 °F 46.4 °F 30.3 in West 4 mph 18 mph 96 % 0 in
16:32 47.5 °F 46.4 °F 30.3 in West 8 mph 18 mph 96 % 0 in
16:37 47.5 °F 46.4 °F 30.3 in WSW 4 mph 15 mph 96 % 0 in
16:42 47.5 °F 46.4 °F 30.3 in West 9 mph 14 mph 96 % 0 in
16:47 47.5 °F 46.4 °F 30.3 in WSW 4 mph 12 mph 96 % 0 in
16:52 47.5 °F 46.4 °F 30.3 in WSW 4 mph 14 mph 96 % 0 in
16:57 47.7 °F 46.6 °F 30.3 in WSW 7 mph 14 mph 96 % 0 in
17:02 47.7 °F 46.6 °F 30.3 in SW 4 mph 14 mph 96 % 0 in
17:12 47.7 °F 46.6 °F 30.3 in SW 2 mph 15 mph 96 % 0 in
17:17 47.7 °F 46.6 °F 30.3 in West 9 mph 15 mph 96 % 0 in
17:22 47.7 °F 46.6 °F 30.3 in WSW 6 mph 13 mph 96 % 0 in
17:27 47.7 °F 46.6 °F 30.3 in South 3 mph 13 mph 96 % 0 in
17:32 47.7 °F 46.6 °F 30.3 in WSW 8 mph 13 mph 96 % 0 in
17:37 47.7 °F 46.6 °F 30.3 in SW 7 mph 13 mph 96 % 0 in
17:42 47.7 °F 46.6 °F 30.3 in SW 6 mph 13 mph 96 % 0 in
17:47 47.7 °F 46.6 °F 30.3 in SW 5 mph 17 mph 96 % 0 in
17:52 47.7 °F 46.6 °F 30.3 in SSW 2 mph 17 mph 96 % 0 in
17:57 47.7 °F 46.6 °F 30.3 in SSW 3 mph 17 mph 96 % 0 in
18:02 47.7 °F 46.6 °F 30.3 in West 4 mph 17 mph 96 % 0 in
18:07 47.7 °F 46.6 °F 30.3 in SW 7 mph 13 mph 96 % 0 in
18:12 47.7 °F 46.6 °F 30.3 in SW 3 mph 13 mph 96 % 0 in
18:17 47.7 °F 46.6 °F 30.3 in SW 6 mph 13 mph 96 % 0 in
18:22 47.7 °F 46.6 °F 30.3 in SW 5 mph 12 mph 96 % 0 in
18:27 47.7 °F 46.6 °F 30.3 in SW 7 mph 12 mph 96 % 0 in
18:32 47.7 °F 46.6 °F 30.3 in SW 10 mph 12 mph 96 % 0 in
18:42 47.8 °F 46.8 °F 30.3 in WSW 9 mph 13 mph 96 % 0 in
18:47 47.8 °F 46.8 °F 30.3 in WSW 8 mph 13 mph 96 % 0 in
18:52 47.8 °F 46.8 °F 30.3 in WSW 6 mph 13 mph 96 % 0 in
18:57 47.8 °F 46.8 °F 30.3 in SSW 5 mph 13 mph 96 % 0 in
19:02 47.7 °F 46.6 °F 30.3 in SW 5 mph 13 mph 96 % 0 in
19:07 47.7 °F 46.9 °F 30.3 in SSW 3 mph 11 mph 97 % 0 in
19:12 47.7 °F 46.9 °F 30.3 in SSW 1 mph 10 mph 97 % 0 in
19:17 47.7 °F 46.9 °F 30.3 in West 3 mph 10 mph 97 % 0 in
19:22 47.7 °F 46.9 °F 30.3 in WSW 3 mph 7 mph 97 % 0 in
19:27 47.7 °F 46.9 °F 30.3 in SW 4 mph 8 mph 97 % 0 in
19:32 47.7 °F 46.9 °F 30.3 in WSW 10 mph 10 mph 97 % 0.01 in
19:37 47.7 °F 46.9 °F 30.3 in West 4 mph 11 mph 97 % 0.01 in
19:42 47.7 °F 46.9 °F 30.3 in SW 3 mph 12 mph 97 % 0.01 in
19:47 47.7 °F 46.9 °F 30.3 in SW 3 mph 12 mph 97 % 0.01 in
19:52 47.7 °F 46.9 °F 30.3 in WSW 4 mph 12 mph 97 % 0.01 in
19:57 47.7 °F 46.9 °F 30.3 in SW 11 mph 11 mph 97 % 0.01 in
20:02 47.7 °F 46.9 °F 30.3 in SW 2 mph 8 mph 97 % 0.01 in
20:07 47.7 °F 46.9 °F 30.3 in WSW 6 mph 11 mph 97 % 0.01 in
20:12 47.7 °F 46.9 °F 30.3 in WSW 7 mph 11 mph 97 % 0.01 in
20:17 47.7 °F 46.9 °F 30.3 in West 2 mph 11 mph 97 % 0.01 in
20:22 47.7 °F 46.9 °F 30.3 in SW 2 mph 11 mph 97 % 0.01 in
20:27 47.7 °F 46.6 °F 30.3 in West 1 mph 11 mph 96 % 0.01 in
20:32 47.7 °F 46.6 °F 30.3 in West 5 mph 11 mph 96 % 0 in
20:37 47.7 °F 46.6 °F 30.3 in WSW 6 mph 11 mph 96 % 0 in
20:42 47.7 °F 46.6 °F 30.3 in WSW 6 mph 11 mph 96 % 0 in
20:47 47.7 °F 46.6 °F 30.3 in West 6 mph 11 mph 96 % 0 in
20:52 47.7 °F 46.6 °F 30.3 in WSW 5 mph 11 mph 96 % 0 in
20:57 47.7 °F 46.6 °F 30.3 in WSW 8 mph 10 mph 96 % 0 in
21:02 47.7 °F 46.6 °F 30.3 in WSW 5 mph 10 mph 96 % 0 in
21:12 47.7 °F 46.6 °F 30.3 in SW 7 mph 15 mph 96 % 0 in
21:17 47.7 °F 46.6 °F 30.3 in SW 4 mph 15 mph 96 % 0 in
21:22 47.7 °F 46.6 °F 30.3 in WSW 3 mph 15 mph 96 % 0 in
21:27 47.7 °F 46.6 °F 30.3 in South 2 mph 14 mph 96 % 0 in
21:32 47.5 °F 46.4 °F 30.3 in SW 5 mph 14 mph 96 % 0 in
21:37 47.5 °F 46.4 °F 30.3 in SW 10 mph 10 mph 96 % 0 in
21:42 47.5 °F 46.8 °F 30.3 in SW 1 mph 12 mph 97 % 0 in
21:47 47.5 °F 46.8 °F 30.3 in SW 3 mph 12 mph 97 % 0 in
21:52 47.5 °F 46.8 °F 30.3 in West 5 mph 12 mph 97 % 0 in
21:57 47.5 °F 46.8 °F 30.3 in Calm   11 mph 97 % 0 in
22:02 47.5 °F 46.8 °F 30.3 in SW 4 mph 11 mph 97 % 0 in
22:12 47.5 °F 46.8 °F 30.3 in South 2 mph 8 mph 97 % 0 in
22:17 47.5 °F 46.8 °F 30.3 in SW 9 mph 9 mph 97 % 0 in
22:22 47.5 °F 46.8 °F 30.3 in WSW 1 mph 9 mph 97 % 0 in
22:27 47.5 °F 46.8 °F 30.3 in WNW 3 mph 9 mph 97 % 0 in
22:32 47.5 °F 46.8 °F 30.3 in SW 7 mph 9 mph 97 % 0 in
22:37 47.5 °F 46.8 °F 30.3 in WSW 4 mph 12 mph 97 % 0 in
22:42 47.7 °F 46.9 °F 30.3 in SW 2 mph 13 mph 97 % 0 in
22:47 47.5 °F 46.8 °F 30.3 in WSW 4 mph 13 mph 97 % 0 in
22:52 47.5 °F 46.8 °F 30.3 in West 2 mph 12 mph 97 % 0 in
22:57 47.7 °F 46.9 °F 30.3 in WSW 6 mph 12 mph 97 % 0 in
23:02 47.7 °F 46.9 °F 30.3 in WSW 5 mph 12 mph 97 % 0 in
23:07 47.7 °F 46.9 °F 30.3 in WSW 6 mph 10 mph 97 % 0 in
23:12 47.7 °F 46.9 °F 30.3 in WSW 3 mph 10 mph 97 % 0 in
23:17 47.7 °F 46.9 °F 30.3 in SW 2 mph 9 mph 97 % 0 in
23:22 47.7 °F 46.9 °F 30.3 in WSW 5 mph 9 mph 97 % 0 in
23:27 47.7 °F 46.9 °F 30.3 in WSW 3 mph 9 mph 97 % 0 in
23:32 47.7 °F 46.9 °F 30.3 in SSW 3 mph 9 mph 97 % 0 in
23:37 47.7 °F 46.9 °F 30.3 in SSW 2 mph 7 mph 97 % 0 in
23:42 47.7 °F 46.9 °F 30.3 in SW 3 mph 7 mph 97 % 0 in
23:47 47.7 °F 46.9 °F 30.3 in WSW 2 mph 6 mph 97 % 0 in
23:52 47.7 °F 46.9 °F 30.3 in SW 3 mph 6 mph 97 % 0 in
Meteo18
Compliments of Weather Underground - 4 mb

Script developed by  Jim McMurry - jmcmurry@mwt.net Adapted for the template by  Wim van der Kuil - Leuven-Template.eu

You find our weather info also at:

European Weather Network

Weather Underground

Equipment we use:

Weather-station
Davis Vue

Weather-program
Meteohub

Weather-server
Raspberry PI 2 B+

Provider
1 and 1

Davis Vue

Meteohub

Raspberry PI 2 B+

1 and 1